KGFA/GFA METAR and TAF weather

Enter ICAO airport designator
Station Type Date Time Source
KGFA METAR 2024/04/15 07:55 UTC NOAA

KGFA 150755Z AUTO 22009KT 10SM BKN190 OVC220 11/05 A2975 RMK AO2 SLP067 T01110052 $


Station Type Date Time Source
KGFA Decoded METAR 2024/04/15 07:55 UTC NOAA

Malmstrom Air Force Base, MT, United States (KGFA) 47-30N 111-11W
Apr 15, 2024 - 03:55 AM EDT / 2024.04.15 0755 UTC
Wind: from the SW (220 degrees) at 10 MPH (9 KT):0
Visibility: 10 mile(s):0
Sky conditions: overcast
Temperature: 52.0 F (11.1 C)
Dew Point: 41.4 F (5.2 C)
Relative Humidity: 66%
Pressure (altimeter): 29.75 in. Hg (1007 hPa)
ob: KGFA 150755Z AUTO 22009KT 10SM BKN190 OVC220 11/05 A2975 RMK AO2 SLP067 T01110052
cycle: 8

Station Type Date Time Source
KGFA TAF 2024/04/12 21:58 UTC NOAA